createdAt,value
2022-11-13T00:01:58.432Z,76.91
2022-11-13T00:04:00.483Z,78.33
2022-11-13T00:06:03.045Z,78.25
2022-11-13T00:08:05.209Z,78.17
2022-11-13T00:10:07.374Z,78.67
2022-11-13T00:12:09.198Z,78.24
2022-11-13T00:14:11.357Z,78.16
2022-11-13T00:16:16.673Z,78.38
2022-11-13T00:18:18.482Z,78.97
2022-11-13T00:20:20.683Z,78.86
2022-11-13T00:22:22.462Z,79.50
2022-11-13T00:24:24.238Z,79.18
2022-11-13T00:26:28.745Z,79.18
2022-11-13T00:28:31.049Z,79.61
2022-11-13T00:30:32.898Z,79.21
2022-11-13T00:32:35.091Z,78.78
2022-11-13T00:34:52.294Z,79.05
2022-11-13T00:36:54.109Z,79.23
2022-11-13T00:38:56.529Z,78.94
2022-11-13T00:40:59.043Z,78.62
2022-11-13T00:43:00.822Z,78.60
2022-11-13T00:45:03.038Z,78.81
2022-11-13T00:47:05.074Z,79.32
2022-11-13T00:49:06.954Z,79.35
2022-11-13T00:51:09.115Z,79.59
2022-11-13T00:53:16.836Z,79.26
2022-11-13T00:55:20.049Z,78.64
2022-11-13T00:57:22.226Z,77.99
2022-11-13T00:59:24.011Z,79.17
2022-11-13T01:01:25.832Z,78.72
2022-11-13T01:03:28.070Z,79.47
2022-11-13T01:05:30.066Z,78.36
2022-11-13T01:07:31.983Z,78.77
2022-11-13T01:09:34.147Z,78.44
2022-11-13T01:11:35.930Z,77.66
2022-11-13T01:13:38.897Z,77.97
2022-11-13T01:15:43.248Z,77.38
2022-11-13T01:17:45.135Z,77.79
2022-11-13T01:19:47.031Z,77.41
2022-11-13T01:21:49.161Z,77.51
2022-11-13T01:23:51.452Z,78.00
2022-11-13T01:25:53.251Z,78.05
2022-11-13T01:27:55.541Z,77.86
2022-11-13T01:29:57.336Z,77.51
2022-11-13T01:31:59.132Z,76.68
2022-11-13T01:34:01.566Z,76.91
2022-11-13T01:36:13.186Z,76.75
2022-11-13T01:38:15.267Z,75.42
2022-11-13T01:40:17.578Z,76.36
2022-11-13T01:42:19.389Z,76.83
2022-11-13T01:44:21.541Z,76.02
2022-11-13T01:46:31.206Z,76.86
2022-11-13T01:48:42.387Z,76.33
2022-11-13T01:50:44.236Z,76.90
2022-11-13T01:52:46.430Z,77.46
2022-11-13T01:54:55.255Z,76.95
2022-11-13T01:56:58.295Z,77.67
2022-11-13T01:59:28.928Z,77.34
2022-11-13T02:01:30.807Z,78.53
2022-11-13T02:03:32.659Z,78.20
2022-11-13T02:05:35.069Z,77.33
2022-11-13T02:07:36.926Z,78.03
2022-11-13T02:09:43.286Z,78.46
2022-11-13T02:11:45.923Z,78.51
2022-11-13T02:13:48.170Z,79.14
2022-11-13T02:15:51.025Z,78.58
2022-11-13T02:17:57.606Z,77.94
2022-11-13T02:20:02.090Z,78.01
2022-11-13T02:22:28.205Z,78.19
2022-11-13T02:24:36.782Z,78.44
2022-11-13T02:26:40.316Z,78.95
2022-11-13T02:28:42.162Z,78.74
2022-11-13T02:30:44.534Z,78.39
2022-11-13T02:32:49.498Z,78.68
2022-11-13T02:34:51.307Z,79.19
2022-11-13T02:36:53.570Z,79.12
2022-11-13T02:38:58.669Z,78.89
2022-11-13T02:41:00.759Z,78.47
2022-11-13T02:43:02.867Z,78.79
2022-11-13T02:45:06.443Z,79.11
2022-11-13T02:47:08.339Z,79.06
2022-11-13T02:49:10.463Z,78.22
2022-11-13T02:51:12.240Z,78.77
2022-11-13T02:53:14.084Z,78.93
2022-11-13T02:55:16.320Z,78.70
2022-11-13T02:57:18.324Z,78.48
2022-11-13T02:59:20.103Z,78.50
2022-11-13T03:01:22.441Z,79.23
2022-11-13T03:03:55.576Z,79.30
2022-11-13T03:05:50.191Z,78.76
2022-11-13T03:07:52.430Z,78.87
2022-11-13T03:09:54.253Z,79.06
2022-11-13T03:11:56.026Z,78.53
2022-11-13T03:13:58.172Z,79.02
2022-11-13T03:16:15.163Z,78.76
2022-11-13T03:18:16.988Z,76.63
2022-11-13T03:20:19.270Z,74.89
2022-11-13T03:22:21.103Z,76.11
2022-11-13T03:24:22.892Z,76.21
2022-11-13T03:26:27.975Z,76.51
2022-11-13T03:28:30.134Z,76.04
2022-11-13T03:30:32.154Z,77.02
2022-11-13T03:32:34.330Z,78.37
2022-11-13T03:34:36.139Z,78.22
2022-11-13T03:36:37.978Z,78.09
2022-11-13T03:38:40.100Z,76.95
2022-11-13T03:40:42.801Z,77.58
2022-11-13T03:42:44.621Z,77.65
2022-11-13T03:44:46.887Z,78.36
2022-11-13T03:46:48.707Z,77.34
2022-11-13T03:48:50.506Z,76.61
2022-11-13T03:50:55.115Z,76.48
2022-11-13T03:52:57.149Z,76.09
2022-11-13T03:54:59.008Z,76.79
2022-11-13T03:57:01.170Z,76.25
2022-11-13T03:59:02.963Z,76.60
2022-11-13T04:01:04.840Z,76.49
2022-11-13T04:03:07.410Z,76.57
2022-11-13T04:05:09.435Z,77.15
2022-11-13T04:07:11.276Z,76.77
2022-11-13T04:09:13.609Z,76.78
2022-11-13T04:11:15.400Z,76.74
2022-11-13T04:13:17.270Z,77.62
2022-11-13T04:15:19.459Z,76.38
2022-11-13T04:17:21.313Z,77.18
2022-11-13T04:19:23.123Z,78.18
2022-11-13T04:21:25.553Z,77.60
2022-11-13T04:23:27.566Z,78.27
2022-11-13T04:25:29.333Z,78.49
2022-11-13T04:27:31.526Z,78.18
2022-11-13T04:29:33.327Z,79.15
2022-11-13T04:31:35.172Z,78.51
2022-11-13T04:33:37.365Z,78.04
2022-11-13T04:35:48.605Z,77.94
2022-11-13T04:37:50.444Z,77.71
2022-11-13T04:39:52.603Z,77.00
2022-11-13T04:42:12.925Z,77.94
2022-11-13T04:44:14.778Z,77.13
2022-11-13T04:46:16.904Z,76.85
2022-11-13T04:48:18.686Z,77.00
2022-11-13T04:50:21.100Z,77.18
2022-11-13T04:52:23.226Z,77.82
2022-11-13T04:54:28.716Z,77.88
2022-11-13T04:56:31.279Z,77.22
2022-11-13T04:58:33.413Z,78.06
2022-11-13T05:00:35.186Z,78.73
2022-11-13T05:02:37.357Z,78.43
2022-11-13T05:04:39.495Z,78.64
2022-11-13T05:06:41.569Z,78.49
2022-11-13T05:08:43.536Z,78.85
2022-11-13T05:10:45.660Z,78.98
2022-11-13T05:12:47.547Z,78.55
2022-11-13T05:14:49.574Z,78.79
2022-11-13T05:16:51.799Z,78.79
2022-11-13T05:18:53.644Z,79.67
2022-11-13T05:20:55.712Z,79.15
2022-11-13T05:22:57.835Z,78.49
2022-11-13T05:24:59.606Z,78.30
2022-11-13T05:27:01.569Z,78.39
2022-11-13T05:29:03.850Z,78.26
2022-11-13T05:31:09.976Z,78.58
2022-11-13T05:33:11.854Z,78.67
2022-11-13T05:35:14.175Z,78.52
2022-11-13T05:37:16.043Z,78.50
2022-11-13T05:39:17.875Z,78.50
2022-11-13T05:41:22.167Z,78.59
2022-11-13T05:43:24.044Z,78.17
2022-11-13T05:45:25.942Z,77.90
2022-11-13T05:47:28.123Z,77.71
2022-11-13T05:49:29.945Z,78.18
2022-11-13T05:51:34.402Z,78.41
2022-11-13T05:53:37.215Z,78.18
2022-11-13T05:55:39.048Z,79.07
2022-11-13T05:57:40.928Z,78.54
2022-11-13T05:59:43.117Z,79.77
2022-11-13T06:01:45.125Z,79.15
2022-11-13T06:03:47.816Z,78.81
2022-11-13T06:05:50.100Z,78.77
2022-11-13T06:07:51.920Z,78.68
2022-11-13T06:09:53.700Z,78.61
2022-11-13T06:11:55.994Z,78.35
2022-11-13T06:13:59.024Z,78.40
2022-11-13T06:16:02.233Z,77.82
2022-11-13T06:18:04.441Z,78.71
2022-11-13T06:20:06.655Z,77.80
2022-11-13T06:22:08.683Z,77.81
2022-11-13T06:24:12.900Z,77.97
2022-11-13T06:26:17.878Z,78.16
2022-11-13T06:28:19.754Z,76.99
2022-11-13T06:30:22.006Z,77.64
2022-11-13T06:32:23.841Z,77.84
2022-11-13T06:34:26.073Z,77.68
2022-11-13T06:36:31.216Z,77.57
2022-11-13T06:38:35.677Z,77.67
2022-11-13T06:40:40.539Z,78.27
2022-11-13T06:42:45.597Z,77.93
2022-11-13T06:44:47.516Z,78.02
2022-11-13T06:46:49.372Z,77.74
2022-11-13T06:48:52.602Z,77.29
2022-11-13T06:50:54.445Z,76.76
2022-11-13T06:52:56.467Z,77.53
2022-11-13T06:55:00.153Z,75.92
2022-11-13T06:57:01.982Z,76.20
2022-11-13T06:59:08.152Z,76.49
2022-11-13T07:01:14.074Z,76.03
2022-11-13T07:03:20.614Z,76.74
2022-11-13T07:05:22.415Z,76.47
2022-11-13T07:07:24.579Z,76.85
2022-11-13T07:09:26.719Z,76.07
2022-11-13T07:11:28.461Z,76.42
2022-11-13T07:13:30.640Z,75.81
2022-11-13T07:15:36.998Z,75.75
2022-11-13T07:17:38.955Z,77.37
2022-11-13T07:19:41.108Z,75.90
2022-11-13T07:21:42.934Z,75.99
2022-11-13T07:23:48.123Z,77.16
2022-11-13T07:25:53.886Z,76.12
2022-11-13T07:27:55.652Z,76.31
2022-11-13T07:30:02.296Z,77.55
2022-11-13T07:32:06.097Z,76.78
2022-11-13T07:34:07.938Z,76.36
2022-11-13T07:36:10.870Z,77.25
2022-11-13T07:38:13.259Z,75.57
2022-11-13T07:40:15.202Z,75.78
2022-11-13T07:42:17.245Z,75.08
2022-11-13T07:44:33.461Z,75.44
2022-11-13T07:46:41.341Z,75.95
2022-11-13T07:48:43.116Z,75.88
2022-11-13T07:50:45.399Z,75.85
2022-11-13T07:52:47.251Z,75.12
2022-11-13T07:54:49.335Z,75.23
2022-11-13T07:56:51.490Z,75.58
2022-11-13T07:58:53.495Z,75.03
2022-11-13T08:00:55.300Z,76.07
2022-11-13T08:02:57.815Z,75.24
2022-11-13T08:04:59.628Z,76.56
2022-11-13T08:07:01.603Z,76.25
2022-11-13T08:09:04.663Z,75.96
2022-11-13T08:11:08.912Z,76.08
2022-11-13T08:13:11.361Z,75.53
2022-11-13T08:15:13.994Z,75.75
2022-11-13T08:17:16.010Z,75.54
2022-11-13T08:19:18.007Z,74.92
2022-11-13T08:21:21.378Z,76.03
2022-11-13T08:23:23.585Z,74.77
2022-11-13T08:25:25.526Z,75.05
2022-11-13T08:27:28.214Z,73.53
2022-11-13T08:29:30.164Z,75.34
2022-11-13T08:31:32.103Z,74.47
2022-11-13T08:33:34.273Z,73.81
2022-11-13T08:35:36.179Z,74.85
2022-11-13T08:37:38.003Z,76.02
2022-11-13T08:39:40.350Z,74.15
2022-11-13T08:41:42.131Z,74.82
2022-11-13T08:43:43.932Z,74.45
2022-11-13T08:45:47.487Z,74.49
2022-11-13T08:47:49.348Z,73.06
2022-11-13T08:49:51.117Z,72.98
2022-11-13T08:51:53.258Z,73.73
2022-11-13T08:53:55.319Z,73.80
2022-11-13T08:56:01.990Z,74.21
2022-11-13T08:58:05.087Z,73.50
2022-11-13T09:00:07.807Z,71.75
2022-11-13T09:02:14.502Z,71.91
2022-11-13T09:04:16.776Z,73.58
2022-11-13T09:06:18.687Z,73.46
2022-11-13T09:08:20.620Z,73.71
2022-11-13T09:10:23.110Z,73.68
2022-11-13T09:12:24.943Z,72.59
2022-11-13T09:14:28.216Z,73.80
2022-11-13T09:16:30.448Z,73.15
2022-11-13T09:18:32.453Z,73.31
2022-11-13T09:20:34.624Z,72.21
2022-11-13T09:22:36.879Z,72.67
2022-11-13T09:24:38.875Z,72.08
2022-11-13T09:26:40.783Z,72.53
2022-11-13T09:28:43.028Z,70.83
2022-11-13T09:30:44.917Z,72.35
2022-11-13T09:32:46.773Z,71.88
2022-11-13T09:34:48.912Z,72.13
2022-11-13T09:36:50.838Z,72.82
2022-11-13T09:38:52.652Z,74.16
2022-11-13T09:41:04.239Z,73.29
2022-11-13T09:43:11.669Z,73.51
2022-11-13T09:45:15.681Z,74.17
2022-11-13T09:47:32.121Z,73.87
2022-11-13T09:49:40.265Z,74.72
2022-11-13T09:51:49.799Z,75.75
2022-11-13T09:53:52.435Z,75.48
2022-11-13T09:56:13.428Z,74.04
2022-11-13T09:58:36.827Z,73.67
2022-11-13T10:00:39.553Z,73.58
2022-11-13T10:02:47.425Z,74.88
2022-11-13T10:05:07.820Z,72.94
2022-11-13T10:07:36.989Z,74.46
2022-11-13T10:09:56.337Z,74.33
2022-11-13T10:12:04.655Z,74.11
2022-11-13T10:14:14.632Z,73.51
2022-11-13T10:16:33.434Z,72.53
2022-11-13T10:18:37.955Z,73.38
2022-11-13T10:20:52.002Z,72.61
2022-11-13T10:22:57.073Z,73.42
2022-11-13T10:25:05.613Z,72.76
2022-11-13T10:27:13.146Z,71.49
2022-11-13T10:29:20.228Z,72.23
2022-11-13T10:32:12.870Z,72.45
2022-11-13T10:34:16.979Z,72.81
2022-11-13T10:36:36.483Z,71.92
2022-11-13T10:38:44.897Z,73.71
2022-11-13T10:40:47.115Z,73.47
2022-11-13T10:42:48.931Z,72.62
2022-11-13T10:44:57.300Z,72.04
2022-11-13T10:47:36.482Z,72.86
2022-11-13T10:49:42.315Z,73.49
2022-11-13T10:51:44.184Z,72.75
2022-11-13T10:53:47.306Z,72.26
2022-11-13T10:55:53.003Z,72.58
2022-11-13T10:58:00.617Z,72.53
2022-11-13T11:00:22.985Z,74.27
2022-11-13T11:02:26.711Z,74.71
2022-11-13T11:04:29.050Z,73.73
2022-11-13T11:07:04.590Z,72.71
2022-11-13T11:09:20.542Z,71.73
2022-11-13T11:11:41.201Z,72.87
2022-11-13T11:13:43.266Z,70.03
2022-11-13T11:15:51.903Z,72.49
2022-11-13T11:18:05.018Z,69.73
2022-11-13T11:20:48.670Z,71.44
2022-11-13T11:22:55.115Z,71.90
2022-11-13T11:25:09.247Z,70.56
2022-11-13T11:27:23.124Z,70.25
2022-11-13T11:29:44.382Z,70.22
2022-11-13T11:32:16.051Z,69.26
2022-11-13T11:34:24.640Z,71.00
2022-11-13T11:36:46.309Z,70.26
2022-11-13T11:39:13.410Z,70.30
2022-11-13T11:41:19.210Z,71.04
2022-11-13T11:43:37.808Z,69.99
2022-11-13T11:45:43.550Z,70.91
2022-11-13T11:47:45.473Z,70.97
2022-11-13T11:49:47.522Z,71.18
2022-11-13T11:52:13.094Z,71.65
2022-11-13T11:54:28.443Z,70.95
2022-11-13T11:56:47.479Z,69.96
2022-11-13T11:58:54.743Z,72.15
2022-11-13T12:01:06.721Z,69.33
2022-11-13T12:03:55.591Z,69.97
2022-11-13T12:06:11.957Z,70.22
2022-11-13T12:08:44.978Z,70.50
2022-11-13T12:10:58.353Z,67.61
2022-11-13T12:13:16.771Z,70.59
2022-11-13T12:15:26.794Z,69.28
2022-11-13T12:17:40.636Z,69.46
2022-11-13T12:20:07.557Z,69.36
2022-11-13T12:22:48.628Z,68.34
2022-11-13T12:25:00.646Z,69.06
2022-11-13T12:27:31.288Z,68.31
2022-11-13T12:29:38.742Z,69.57
2022-11-13T12:32:04.904Z,68.67
2022-11-13T12:34:46.050Z,67.14
2022-11-13T12:36:49.341Z,68.42
2022-11-13T12:38:54.964Z,69.69
2022-11-13T12:41:02.582Z,69.51
2022-11-13T12:43:28.783Z,69.11
2022-11-13T12:45:49.807Z,69.30
2022-11-13T12:47:52.311Z,69.24
2022-11-13T12:50:02.863Z,70.15
2022-11-13T12:52:16.450Z,69.11
2022-11-13T12:54:25.759Z,70.28
2022-11-13T12:56:28.031Z,68.51
2022-11-13T12:58:33.545Z,69.29
2022-11-13T13:00:38.129Z,69.26
2022-11-13T13:02:55.480Z,69.66
2022-11-13T13:05:40.852Z,67.89
2022-11-13T13:07:52.201Z,68.18
2022-11-13T13:10:13.894Z,67.67
2022-11-13T13:12:54.082Z,67.64
2022-11-13T13:15:11.926Z,67.53
2022-11-13T13:17:13.740Z,68.11
2022-11-13T13:19:26.937Z,67.92
2022-11-13T13:21:41.347Z,67.58
2022-11-13T13:23:48.654Z,67.79
2022-11-13T13:26:21.832Z,69.14
2022-11-13T13:28:24.221Z,69.52
2022-11-13T13:30:27.607Z,70.65
2022-11-13T13:32:40.984Z,69.57
2022-11-13T13:35:07.246Z,70.05
2022-11-13T13:37:37.648Z,70.67
2022-11-13T13:40:00.341Z,70.00
2022-11-13T13:42:23.787Z,69.84
2022-11-13T13:44:37.987Z,69.25
2022-11-13T13:46:41.411Z,68.41
2022-11-13T13:48:46.155Z,69.14
2022-11-13T13:50:50.470Z,69.14
2022-11-13T13:52:56.053Z,69.42
2022-11-13T13:55:01.773Z,69.17
2022-11-13T13:57:03.750Z,70.57
2022-11-13T13:59:06.544Z,70.54
2022-11-13T14:01:19.410Z,70.28
2022-11-13T14:03:25.151Z,70.30
2022-11-13T14:05:31.173Z,70.51
2022-11-13T14:07:35.547Z,69.63
2022-11-13T14:09:37.443Z,70.35
2022-11-13T14:11:39.366Z,69.68
2022-11-13T14:13:42.114Z,69.93
2022-11-13T14:15:44.214Z,70.29
2022-11-13T14:17:46.021Z,69.92
2022-11-13T14:19:56.645Z,69.57
2022-11-13T14:22:03.977Z,69.98
2022-11-13T14:24:14.643Z,69.30
2022-11-13T14:26:18.465Z,69.51
2022-11-13T14:28:23.964Z,69.75
2022-11-13T14:30:28.536Z,69.47
2022-11-13T14:32:34.457Z,70.42
2022-11-13T14:34:37.292Z,70.02
2022-11-13T14:36:40.921Z,70.40
2022-11-13T14:38:51.814Z,70.52
2022-11-13T14:40:54.615Z,70.32
2022-11-13T14:43:07.667Z,69.84
2022-11-13T14:45:16.172Z,71.26
2022-11-13T14:47:37.535Z,70.53
2022-11-13T14:49:39.789Z,71.46
2022-11-13T14:51:42.252Z,70.78
2022-11-13T14:53:44.095Z,70.75
2022-11-13T14:55:53.996Z,71.10
2022-11-13T14:57:56.270Z,70.83
2022-11-13T15:00:13.258Z,71.17
2022-11-13T15:02:15.156Z,71.30
2022-11-13T15:04:17.335Z,71.19
2022-11-13T15:06:21.787Z,70.68
2022-11-13T15:08:23.571Z,71.55
2022-11-13T15:10:28.420Z,71.19
2022-11-13T15:12:30.310Z,71.54
2022-11-13T15:14:33.211Z,71.39
2022-11-13T15:16:36.349Z,71.08
2022-11-13T15:18:38.136Z,70.61
2022-11-13T15:20:41.364Z,70.37
2022-11-13T15:22:43.848Z,71.67
2022-11-13T15:24:45.753Z,71.33
2022-11-13T15:26:47.628Z,72.30
2022-11-13T15:28:50.342Z,71.82
2022-11-13T15:30:52.377Z,72.55
2022-11-13T15:32:54.860Z,72.14
2022-11-13T15:34:57.182Z,72.75
2022-11-13T15:36:58.999Z,72.31
2022-11-13T15:39:06.203Z,73.03
2022-11-13T15:41:13.883Z,72.88
2022-11-13T15:43:22.370Z,72.51
2022-11-13T15:45:25.658Z,72.72
2022-11-13T15:47:35.778Z,71.51
2022-11-13T15:49:40.659Z,72.52
2022-11-13T15:51:48.924Z,72.29
2022-11-13T15:53:58.831Z,71.20
2022-11-13T15:56:03.268Z,72.00
2022-11-13T15:58:05.122Z,71.30
2022-11-13T16:00:17.190Z,71.38
2022-11-13T16:02:19.953Z,71.15
2022-11-13T16:04:22.275Z,71.06
2022-11-13T16:06:24.832Z,70.30
2022-11-13T16:08:27.024Z,70.24
2022-11-13T16:10:29.263Z,70.92
2022-11-13T16:12:31.599Z,70.79
2022-11-13T16:14:33.391Z,71.02
2022-11-13T16:16:38.515Z,71.11
2022-11-13T16:18:40.935Z,72.04
2022-11-13T16:20:42.702Z,71.90
2022-11-13T16:22:45.082Z,71.96
2022-11-13T16:24:47.603Z,72.26
2022-11-13T16:26:54.679Z,72.39
2022-11-13T16:31:19.916Z,72.15
2022-11-13T16:33:21.735Z,72.68
2022-11-13T16:35:23.549Z,72.26
2022-11-13T16:37:25.774Z,71.13
2022-11-13T16:39:27.798Z,72.00
2022-11-13T16:41:31.674Z,72.16
2022-11-13T16:43:33.925Z,71.91
2022-11-13T16:45:38.461Z,72.16
2022-11-13T16:47:40.363Z,71.37
2022-11-13T16:49:42.565Z,71.29
2022-11-13T16:51:45.991Z,71.35
2022-11-13T16:53:47.898Z,72.47
2022-11-13T16:55:50.139Z,72.03
2022-11-13T16:57:52.021Z,72.23
2022-11-13T16:59:53.805Z,72.07
2022-11-13T17:01:56.122Z,71.70
2022-11-13T17:03:58.349Z,71.60
2022-11-13T17:06:00.161Z,71.84
2022-11-13T17:08:02.683Z,72.02
2022-11-13T17:10:29.767Z,71.77
2022-11-13T17:12:27.111Z,72.32
2022-11-13T17:14:29.332Z,72.79
2022-11-13T17:16:32.131Z,72.11
2022-11-13T17:18:34.674Z,72.22
2022-11-13T17:20:37.229Z,72.17
2022-11-13T17:22:48.251Z,71.53
2022-11-13T17:24:50.656Z,72.19
2022-11-13T17:26:53.667Z,71.52
2022-11-13T17:28:58.454Z,72.22
2022-11-13T17:31:05.742Z,71.67
2022-11-13T17:33:07.906Z,71.95
2022-11-13T17:35:12.805Z,71.17
2022-11-13T17:37:14.911Z,71.50
2022-11-13T17:39:17.092Z,71.16
2022-11-13T17:41:19.267Z,71.25
2022-11-13T17:43:22.218Z,71.29
2022-11-13T17:45:24.653Z,71.57
2022-11-13T17:47:26.596Z,71.89
2022-11-13T17:49:28.813Z,72.34
2022-11-13T17:51:31.003Z,71.73
2022-11-13T17:53:33.797Z,71.57
2022-11-13T17:55:35.622Z,71.86
2022-11-13T17:57:37.815Z,71.91
2022-11-13T17:59:40.284Z,71.49
2022-11-13T18:01:42.282Z,71.91
2022-11-13T18:03:44.479Z,71.39
2022-11-13T18:05:46.765Z,72.04
2022-11-13T18:07:48.641Z,71.15
2022-11-13T18:09:50.856Z,71.55
2022-11-13T18:11:52.790Z,71.15
2022-11-13T18:13:54.829Z,71.34
2022-11-13T18:16:03.720Z,71.54
2022-11-13T18:18:07.140Z,71.34
2022-11-13T18:20:09.953Z,71.24
2022-11-13T18:22:12.078Z,72.25
2022-11-13T18:24:17.154Z,71.74
2022-11-13T18:26:19.389Z,71.95
2022-11-13T18:28:21.703Z,72.06
2022-11-13T18:30:23.504Z,72.40
2022-11-13T18:32:25.430Z,71.32
2022-11-13T18:34:28.975Z,72.19
2022-11-13T18:36:32.421Z,71.17
2022-11-13T18:38:34.439Z,71.58
2022-11-13T18:40:38.098Z,71.52
2022-11-13T18:42:39.911Z,71.59
2022-11-13T18:44:41.683Z,71.56
2022-11-13T18:46:44.107Z,73.70
2022-11-13T18:48:47.177Z,73.11
2022-11-13T18:50:59.867Z,72.56
2022-11-13T18:53:02.051Z,73.16
2022-11-13T18:55:04.212Z,74.31
2022-11-13T18:57:06.015Z,74.57
2022-11-13T18:59:08.443Z,74.52
2022-11-13T19:01:22.151Z,73.82
2022-11-13T19:03:25.041Z,74.46
2022-11-13T19:05:27.265Z,74.64
2022-11-13T19:07:29.451Z,74.83
2022-11-13T19:09:31.325Z,74.12
2022-11-13T19:11:34.237Z,75.40
2022-11-13T19:13:37.382Z,75.81
2022-11-13T19:15:39.585Z,76.54
2022-11-13T19:17:42.303Z,76.75
2022-11-13T19:19:44.618Z,75.65
2022-11-13T19:21:47.339Z,75.75
2022-11-13T19:23:50.271Z,76.28
2022-11-13T19:25:52.155Z,75.11
2022-11-13T19:27:54.382Z,75.60
2022-11-13T19:29:56.601Z,76.36
2022-11-13T19:31:58.383Z,76.31
2022-11-13T19:34:03.401Z,75.72
2022-11-13T19:36:08.931Z,75.96
2022-11-13T19:38:10.705Z,75.66
2022-11-13T19:40:12.788Z,75.63
2022-11-13T19:42:15.054Z,75.93
2022-11-13T19:44:17.194Z,75.32
2022-11-13T19:46:20.008Z,74.95
2022-11-13T19:48:22.585Z,74.42
2022-11-13T19:50:24.577Z,74.17
2022-11-13T19:52:26.566Z,74.70
2022-11-13T19:54:28.891Z,74.80
2022-11-13T19:56:30.658Z,75.09
2022-11-13T19:58:33.581Z,73.59
2022-11-13T20:00:36.312Z,74.31
2022-11-13T20:02:38.300Z,73.85
2022-11-13T20:04:40.256Z,75.55
2022-11-13T20:06:42.464Z,74.37
2022-11-13T20:08:44.742Z,75.54
2022-11-13T20:10:46.534Z,75.82
2022-11-13T20:12:49.229Z,75.11
2022-11-13T20:14:51.010Z,75.95
2022-11-13T20:16:52.804Z,74.83
2022-11-13T20:18:57.112Z,75.04
2022-11-13T20:20:59.374Z,74.99
2022-11-13T20:23:01.479Z,75.18
2022-11-13T20:25:03.996Z,74.44
2022-11-13T20:27:06.199Z,74.30
2022-11-13T20:29:08.113Z,74.32
2022-11-13T20:31:22.302Z,74.53
2022-11-13T20:33:24.315Z,74.74
2022-11-13T20:35:26.168Z,73.74
2022-11-13T20:37:28.299Z,73.93
2022-11-13T20:39:30.169Z,73.50
2022-11-13T20:41:32.187Z,73.39
2022-11-13T20:43:34.429Z,73.85
2022-11-13T20:45:36.285Z,72.68
2022-11-13T20:47:38.205Z,73.21
2022-11-13T20:49:40.568Z,73.26
2022-11-13T20:51:42.359Z,72.47
2022-11-13T20:53:44.374Z,73.20
2022-11-13T20:55:46.519Z,72.76
2022-11-13T20:57:48.307Z,72.79
2022-11-13T20:59:50.167Z,72.52
2022-11-13T21:01:52.488Z,72.52
2022-11-13T21:03:56.095Z,72.35
2022-11-13T21:05:58.599Z,72.39
2022-11-13T21:08:00.872Z,72.10
2022-11-13T21:10:02.788Z,71.60
2022-11-13T21:12:04.909Z,71.46
2022-11-13T21:14:07.076Z,71.68
2022-11-13T21:16:09.754Z,71.36
2022-11-13T21:18:11.612Z,71.91
2022-11-13T21:20:14.088Z,71.65
2022-11-13T21:22:15.967Z,71.93
2022-11-13T21:24:17.939Z,72.90
2022-11-13T21:26:20.097Z,72.08
2022-11-13T21:28:24.169Z,72.00
2022-11-13T21:30:28.682Z,72.46
2022-11-13T21:32:31.375Z,72.86
2022-11-13T21:34:33.231Z,72.58
2022-11-13T21:36:35.107Z,72.41
2022-11-13T21:38:37.601Z,72.74
2022-11-13T21:40:39.368Z,70.73
2022-11-13T21:42:41.312Z,71.67
2022-11-13T21:44:43.503Z,70.56
2022-11-13T21:46:45.932Z,70.86
2022-11-13T21:48:49.401Z,70.77
2022-11-13T21:50:51.613Z,70.93
2022-11-13T21:52:53.460Z,71.19
2022-11-13T21:54:55.239Z,71.12
2022-11-13T21:56:57.427Z,70.92
2022-11-13T21:58:59.787Z,70.44
2022-11-13T22:01:01.871Z,70.34
2022-11-13T22:03:04.127Z,70.99
2022-11-13T22:05:06.440Z,70.88
2022-11-13T22:07:08.540Z,70.18
2022-11-13T22:09:19.871Z,70.24
2022-11-13T22:11:23.070Z,70.65
2022-11-13T22:13:24.861Z,70.28
2022-11-13T22:15:27.056Z,69.76
2022-11-13T22:17:28.808Z,70.17
2022-11-13T22:19:35.652Z,69.60
2022-11-13T22:21:40.008Z,69.61
2022-11-13T22:23:41.950Z,69.21
2022-11-13T22:25:43.731Z,69.75
2022-11-13T22:27:46.408Z,68.99
2022-11-13T22:29:48.167Z,69.41
2022-11-13T22:31:50.161Z,69.71
2022-11-13T22:33:55.127Z,68.35
2022-11-13T22:36:08.701Z,68.91
2022-11-13T22:38:11.511Z,68.81
2022-11-13T22:40:14.262Z,69.24
2022-11-13T22:42:16.127Z,69.10
2022-11-13T22:44:18.458Z,69.14
2022-11-13T22:46:25.822Z,69.56
2022-11-13T22:48:28.005Z,69.22
2022-11-13T22:50:30.057Z,69.21
2022-11-13T22:52:32.378Z,69.13
2022-11-13T22:54:34.209Z,68.90
2022-11-13T22:56:37.314Z,69.59
2022-11-13T22:58:39.499Z,69.41
2022-11-13T23:00:41.450Z,69.41
2022-11-13T23:02:47.279Z,69.25
2022-11-13T23:04:49.907Z,69.57
2022-11-13T23:06:51.749Z,69.08
2022-11-13T23:08:54.699Z,68.85
2022-11-13T23:10:57.638Z,69.53
2022-11-13T23:12:59.575Z,69.20
2022-11-13T23:15:01.354Z,69.62
2022-11-13T23:17:03.785Z,69.74
2022-11-13T23:19:05.841Z,69.42
2022-11-13T23:21:09.228Z,69.93
2022-11-13T23:23:11.452Z,69.78
2022-11-13T23:25:13.313Z,69.48
2022-11-13T23:27:15.093Z,69.98
2022-11-13T23:29:17.317Z,69.11
2022-11-13T23:31:19.504Z,69.45
2022-11-13T23:33:21.387Z,70.50
2022-11-13T23:35:23.921Z,70.76
2022-11-13T23:37:25.703Z,70.24
2022-11-13T23:39:27.577Z,70.34
2022-11-13T23:41:29.715Z,70.15
2022-11-13T23:44:07.126Z,71.22
2022-11-13T23:45:53.832Z,71.09
2022-11-13T23:47:56.083Z,71.15
2022-11-13T23:49:57.937Z,70.92
2022-11-13T23:51:59.762Z,70.67
2022-11-13T23:54:02.018Z,71.05
2022-11-13T23:56:04.047Z,71.44
2022-11-13T23:58:09.584Z,71.83
